createdAt,value
2023-03-17T00:03:58.776Z,4.00
2023-03-17T00:14:04.556Z,4.30
2023-03-17T00:24:14.725Z,4.30
2023-03-17T00:34:20.836Z,4.30
2023-03-17T00:44:25.411Z,4.30
2023-03-17T00:54:30.412Z,4.30
2023-03-17T01:04:35.178Z,4.40
2023-03-17T01:14:40.802Z,4.40
2023-03-17T01:24:44.511Z,4.30
2023-03-17T01:34:49.560Z,4.30
2023-03-17T01:45:02.150Z,4.30
2023-03-17T01:55:11.403Z,4.40
2023-03-17T02:05:18.846Z,4.30
2023-03-17T02:15:39.148Z,4.20
2023-03-17T02:25:47.291Z,4.00
2023-03-17T02:35:51.119Z,3.80
2023-03-17T02:45:56.143Z,3.70
2023-03-17T02:55:59.940Z,3.60
2023-03-17T03:06:05.264Z,3.60
2023-03-17T03:16:10.149Z,3.70
2023-03-17T03:26:15.128Z,3.60
2023-03-17T03:36:18.867Z,3.50
2023-03-17T03:46:23.956Z,3.40
2023-03-17T03:56:27.692Z,3.40
2023-03-17T04:06:32.733Z,3.30
2023-03-17T04:16:36.472Z,3.20
2023-03-17T04:26:41.579Z,3.10
2023-03-17T04:36:46.581Z,3.10
2023-03-17T04:46:51.977Z,3.00
2023-03-17T04:56:56.128Z,2.80
2023-03-17T05:07:03.370Z,2.70
2023-03-17T05:17:07.448Z,2.60
2023-03-17T05:27:12.796Z,2.50
2023-03-17T05:37:16.637Z,2.60
2023-03-17T05:47:22.776Z,2.60
2023-03-17T05:57:26.529Z,2.60
2023-03-17T06:07:41.274Z,2.50
2023-03-17T06:17:48.591Z,2.50
2023-03-17T06:27:54.826Z,2.80
2023-03-17T06:37:58.488Z,3.00
2023-03-17T06:48:03.596Z,3.30
2023-03-17T06:58:07.234Z,3.70
2023-03-17T07:08:16.230Z,4.20
2023-03-17T07:18:19.931Z,4.70
2023-03-17T07:28:25.710Z,5.30
2023-03-17T07:38:29.393Z,5.80
2023-03-17T07:48:36.477Z,6.20
2023-03-17T07:58:40.269Z,6.70
2023-03-17T08:08:46.092Z,7.20
2023-03-17T08:18:49.870Z,7.60
2023-03-17T08:28:54.897Z,8.10
2023-03-17T08:38:59.020Z,8.50
2023-03-17T08:49:04.473Z,8.90
2023-03-17T08:59:09.453Z,9.10
2023-03-17T09:09:14.863Z,9.50
2023-03-17T09:19:18.621Z,10.20
2023-03-17T09:29:23.590Z,10.70
2023-03-17T09:39:27.493Z,11.20
2023-03-17T09:49:44.694Z,11.30
2023-03-17T09:59:55.090Z,11.50
2023-03-17T10:10:05.169Z,11.70
2023-03-17T10:20:14.720Z,12.00
2023-03-17T10:30:23.365Z,12.20
2023-03-17T10:40:30.502Z,12.40
2023-03-17T10:50:40.990Z,12.50
2023-03-17T11:00:57.734Z,13.00
2023-03-17T11:11:08.365Z,13.30
2023-03-17T11:21:17.411Z,13.60
2023-03-17T11:31:31.242Z,14.00
2023-03-17T11:41:52.168Z,14.20
2023-03-17T11:52:08.554Z,14.40
2023-03-17T12:02:23.531Z,14.60
2023-03-17T12:12:36.646Z,14.60
2023-03-17T12:22:45.889Z,15.30
2023-03-17T12:33:00.205Z,15.20
2023-03-17T12:43:33.358Z,15.10
2023-03-17T12:53:39.883Z,15.10
2023-03-17T13:03:58.935Z,15.10
2023-03-17T13:14:26.376Z,15.20
2023-03-17T13:24:51.920Z,15.40
2023-03-17T13:35:23.453Z,15.60
2023-03-17T13:45:39.209Z,15.40
2023-03-17T13:56:11.961Z,15.30
2023-03-17T14:06:18.741Z,15.40
2023-03-17T14:16:29.435Z,15.60
2023-03-17T14:26:33.984Z,15.70
2023-03-17T14:36:38.948Z,15.70
2023-03-17T14:46:42.647Z,15.90
2023-03-17T14:56:52.655Z,15.90
2023-03-17T15:06:58.166Z,15.90
2023-03-17T15:17:07.876Z,15.80
2023-03-17T15:27:17.047Z,15.60
2023-03-17T15:37:24.589Z,15.50
2023-03-17T15:47:31.951Z,15.30
2023-03-17T15:57:37.217Z,15.20
2023-03-17T16:07:41.653Z,15.10
2023-03-17T16:17:48.627Z,15.00
2023-03-17T16:27:54.054Z,14.80
2023-03-17T16:37:59.071Z,14.60
2023-03-17T16:48:04.701Z,14.30
2023-03-17T16:58:20.078Z,14.00
2023-03-17T17:08:23.775Z,13.80
2023-03-17T17:18:29.018Z,13.60
2023-03-17T17:28:33.033Z,13.40
2023-03-17T17:38:38.142Z,13.10
2023-03-17T17:48:41.796Z,12.90
2023-03-17T17:58:47.431Z,12.70
2023-03-17T18:08:54.118Z,12.60
2023-03-17T18:19:00.327Z,12.50
2023-03-17T18:29:04.698Z,12.30
2023-03-17T18:39:09.713Z,12.10
2023-03-17T18:49:13.288Z,11.80
2023-03-17T18:59:18.267Z,11.70
2023-03-17T19:09:22.301Z,11.50
2023-03-17T19:19:27.373Z,11.40
2023-03-17T19:29:31.185Z,11.20
2023-03-17T19:39:37.552Z,11.00
2023-03-17T19:49:41.922Z,10.80
2023-03-17T19:59:47.259Z,10.80
2023-03-17T20:09:51.219Z,10.60
2023-03-17T20:19:56.431Z,10.40
2023-03-17T20:30:00.249Z,10.30
2023-03-17T20:40:08.320Z,10.30
2023-03-17T20:50:13.432Z,10.30
2023-03-17T21:00:22.152Z,10.20
2023-03-17T21:10:26.010Z,10.30
2023-03-17T21:20:31.407Z,10.30
2023-03-17T21:30:36.930Z,10.10
2023-03-17T21:40:42.854Z,9.90
2023-03-17T21:50:46.619Z,9.80
2023-03-17T22:00:52.370Z,9.80
2023-03-17T22:10:56.542Z,9.80
2023-03-17T22:21:02.648Z,9.90
2023-03-17T22:31:13.309Z,10.00
2023-03-17T22:41:22.449Z,10.10
2023-03-17T22:51:27.511Z,10.10
2023-03-17T23:01:33.225Z,10.10
2023-03-17T23:11:37.424Z,9.80
2023-03-17T23:21:42.640Z,9.60
2023-03-17T23:31:46.592Z,9.70
2023-03-17T23:41:51.684Z,9.70
2023-03-17T23:51:55.313Z,9.70
